Time;durP1;ratioP1;P1;durP2;ratioP2;P2;SDS_P1;SDS_P2;PMS_P1;PMS_P2;Temp;Humidity;BMP_temperature;BMP_pressure;BME280_temperature;BME280_humidity;BME280_pressure;Samples;Min_cycle;Max_cycle;Signal;HPM_P1;HPM_P2
2023/03/06 00:01:35;;;;;;;0.87;0.87;;;3.30;99.90;;;;;;5076114;28;20456;-80
2023/03/06 00:04:02;;;;;;;0.60;0.50;;;3.20;99.90;;;;;;5075763;28;20975;-80
2023/03/06 00:06:29;;;;;;;2.00;0.40;;;3.20;99.90;;;;;;5076001;28;20452;-80
2023/03/06 00:08:56;;;;;;;1.47;0.80;;;3.20;99.90;;;;;;5075913;28;20469;-80
2023/03/06 00:11:24;;;;;;;0.40;0.40;;;3.20;99.90;;;;;;5075658;28;20442;-80
2023/03/06 00:13:51;;;;;;;0.97;0.57;;;3.20;99.90;;;;;;5075954;28;20472;-80
2023/03/06 00:16:18;;;;;;;0.40;0.30;;;3.20;99.90;;;;;;5075301;28;20477;-80
2023/03/06 00:18:46;;;;;;;0.80;0.50;;;3.20;99.90;;;;;;5075450;28;20469;-80
2023/03/06 00:21:13;;;;;;;4.73;0.50;;;3.10;99.90;;;;;;5075764;28;20505;-80
2023/03/06 00:23:40;;;;;;;0.47;0.30;;;3.10;99.90;;;;;;5075746;28;20456;-80
2023/03/06 00:26:07;;;;;;;0.80;0.80;;;3.10;99.90;;;;;;5075708;28;20445;-80
2023/03/06 00:28:35;;;;;;;1.33;0.60;;;3.10;99.90;;;;;;5075576;28;20466;-80
2023/03/06 00:31:02;;;;;;;3.80;0.77;;;3.00;99.90;;;;;;5075641;28;20460;-80
2023/03/06 00:33:29;;;;;;;0.40;0.30;;;3.00;99.90;;;;;;5075528;28;20457;-80
2023/03/06 00:35:56;;;;;;;0.50;0.50;;;3.00;99.90;;;;;;5075411;28;20476;-80
2023/03/06 00:38:22;;;;;;;3.90;0.60;;;3.00;99.90;;;;;;5075096;28;20977;-80
2023/03/06 00:40:49;;;;;;;1.30;1.30;;;3.00;99.90;;;;;;5075385;28;20453;-80
2023/03/06 00:43:16;;;;;;;0.60;0.53;;;3.10;99.90;;;;;;5075097;28;20477;-80
2023/03/06 00:45:44;;;;;;;2.60;0.50;;;3.00;99.90;;;;;;5075038;28;20960;-80
2023/03/06 00:48:10;;;;;;;1.67;1.57;;;3.00;99.90;;;;;;5075148;28;20473;-80
2023/03/06 00:50:37;;;;;;;1.43;1.17;;;3.00;99.90;;;;;;5075158;28;20811;-80
2023/03/06 00:53:04;;;;;;;0.77;0.50;;;3.00;99.90;;;;;;5075122;28;20457;-80
2023/03/06 00:55:32;;;;;;;0.40;0.40;;;3.00;99.90;;;;;;5074812;28;20441;-80
2023/03/06 00:57:58;;;;;;;7.20;1.03;;;3.00;99.90;;;;;;5074901;28;20528;-80
2023/03/06 01:00:25;;;;;;;0.80;0.40;;;3.00;99.90;;;;;;5074986;28;20445;-80
2023/03/06 01:02:54;;;;;;;3.50;1.47;;;3.00;99.90;;;;;;5074674;28;20961;-80
2023/03/06 01:05:22;;;;;;;0.50;0.50;;;2.90;99.90;;;;;;5074869;28;20450;-80
2023/03/06 01:07:48;;;;;;;4.03;0.60;;;3.00;99.90;;;;;;5074760;28;20823;-80
2023/03/06 01:10:15;;;;;;;0.40;0.40;;;2.90;99.90;;;;;;5074797;28;20449;-80
2023/03/06 01:12:42;;;;;;;0.50;0.50;;;2.90;99.90;;;;;;5074751;28;20450;-80
2023/03/06 01:15:10;;;;;;;0.80;0.80;;;3.00;99.90;;;;;;5074703;28;20449;-80
2023/03/06 01:17:37;;;;;;;1.70;1.00;;;2.90;99.90;;;;;;5074492;28;20493;-80
2023/03/06 01:20:06;;;;;;;1.03;0.50;;;2.90;99.90;;;;;;5074612;28;20442;-80
2023/03/06 01:22:33;;;;;;;3.40;0.87;;;3.00;99.90;;;;;;5075077;28;20445;-80
2023/03/06 01:25:00;;;;;;;0.57;0.57;;;2.90;99.90;;;;;;5074507;28;20456;-80
2023/03/06 01:27:26;;;;;;;0.43;0.43;;;2.90;99.90;;;;;;5073559;28;20457;-80
2023/03/06 01:29:53;;;;;;;0.43;0.40;;;2.90;99.90;;;;;;5074083;28;20945;-80
2023/03/06 01:32:20;;;;;;;0.50;0.50;;;2.90;99.90;;;;;;5074337;28;20453;-80
2023/03/06 01:34:47;;;;;;;0.57;0.57;;;2.90;99.90;;;;;;5074327;28;20526;-80
2023/03/06 01:37:15;;;;;;;1.37;0.60;;;2.80;99.90;;;;;;5074082;28;20481;-80
2023/03/06 01:39:42;;;;;;;0.67;0.67;;;2.90;99.90;;;;;;5074221;28;20487;-80
2023/03/06 01:42:09;;;;;;;2.10;0.43;;;2.80;99.90;;;;;;5074194;28;20420;-80
2023/03/06 01:44:35;;;;;;;0.60;0.60;;;2.80;99.90;;;;;;5073685;28;20489;-80
2023/03/06 01:47:02;;;;;;;0.47;0.40;;;2.80;99.90;;;;;;5074000;28;20445;-80
2023/03/06 01:49:32;;;;;;;0.40;0.40;;;2.70;99.90;;;;;;5074015;28;20453;-80
2023/03/06 01:52:01;;;;;;;1.80;0.60;;;2.80;99.90;;;;;;5073944;28;20450;-80
2023/03/06 01:54:34;;;;;;;0.30;0.30;;;2.80;99.90;;;;;;5073937;28;20438;-80
2023/03/06 01:57:03;;;;;;;2.53;0.77;;;2.80;99.90;;;;;;5073791;28;20466;-80
2023/03/06 01:59:32;;;;;;;1.33;0.83;;;2.80;99.90;;;;;;5073857;28;20438;-80
2023/03/06 02:02:01;;;;;;;0.90;0.90;;;2.80;99.90;;;;;;5073837;28;20476;-80
2023/03/06 02:04:28;;;;;;;0.70;0.70;;;2.70;99.90;;;;;;5073815;28;20500;-81
2023/03/06 02:06:55;;;;;;;3.07;1.33;;;2.70;99.90;;;;;;5073681;28;20858;-81
2023/03/06 02:09:22;;;;;;;0.30;0.30;;;2.80;99.90;;;;;;5073463;28;20897;-81
2023/03/06 02:11:50;;;;;;;1.13;0.73;;;2.80;99.90;;;;;;5073693;28;20449;-81
2023/03/06 02:14:17;;;;;;;0.93;0.60;;;2.80;99.90;;;;;;5073714;28;20817;-81
2023/03/06 02:16:44;;;;;;;0.30;0.30;;;2.80;99.90;;;;;;5073582;28;20473;-81
2023/03/06 02:19:24;;;;;;;0.60;0.60;;;2.80;99.90;;;;;;5073616;28;20462;-80
2023/03/06 02:21:50;;;;;;;0.60;0.50;;;2.80;99.90;;;;;;5073312;28;20909;-81
2023/03/06 02:24:27;;;;;;;0.57;0.57;;;2.80;99.90;;;;;;5073562;28;20450;-80
2023/03/06 02:26:56;;;;;;;0.40;0.40;;;2.80;99.90;;;;;;5073863;28;20465;-81
2023/03/06 02:29:26;;;;;;;0.33;0.30;;;2.70;99.90;;;;;;5073547;28;20448;-81
2023/03/06 02:31:53;;;;;;;0.37;0.37;;;2.70;99.90;;;;;;5073496;28;20442;-81
2023/03/06 02:34:55;;;;;;;1.03;0.57;;;2.80;99.90;;;;;;5073406;28;20454;-81
2023/03/06 02:37:23;;;;;;;1.17;0.40;;;2.80;99.90;;;;;;5072924;28;21006;-81
2023/03/06 02:39:57;;;;;;;2.33;0.60;;;2.90;99.90;;;;;;5073169;28;20446;-81
2023/03/06 02:42:28;;;;;;;0.50;0.50;;;2.90;99.90;;;;;;5073138;28;20435;-80
2023/03/06 02:44:57;;;;;;;2.03;0.57;;;2.90;99.90;;;;;;5073407;28;20495;-81
2023/03/06 02:47:24;;;;;;;0.40;0.40;;;2.90;99.90;;;;;;5073237;28;20519;-81
2023/03/06 02:49:51;;;;;;;0.67;0.67;;;2.80;99.90;;;;;;5073348;28;20449;-81
2023/03/06 02:52:17;;;;;;;0.30;0.30;;;2.90;99.90;;;;;;5072998;28;20960;-81
2023/03/06 02:54:44;;;;;;;0.50;0.50;;;2.90;99.90;;;;;;5072975;28;20472;-80
2023/03/06 02:57:11;;;;;;;1.90;0.90;;;2.90;99.90;;;;;;5073043;28;20876;-81
2023/03/06 02:59:39;;;;;;;1.43;0.50;;;2.90;99.90;;;;;;5072896;28;20453;-80
2023/03/06 03:02:06;;;;;;;0.97;0.57;;;2.80;99.90;;;;;;5073148;28;20449;-81
2023/03/06 03:04:33;;;;;;;1.63;0.60;;;2.80;99.90;;;;;;5073158;28;20453;-80
2023/03/06 03:06:59;;;;;;;2.10;0.60;;;2.80;99.90;;;;;;5073006;28;20445;-80
2023/03/06 03:09:27;;;;;;;0.40;0.33;;;2.80;99.90;;;;;;5072795;28;20971;-81
2023/03/06 03:11:53;;;;;;;1.23;1.03;;;2.80;99.90;;;;;;5073033;28;20496;-80
2023/03/06 03:14:20;;;;;;;1.13;0.87;;;2.80;99.90;;;;;;5073062;28;20483;-80
2023/03/06 03:16:48;;;;;;;0.30;0.30;;;2.80;99.90;;;;;;5072973;28;20488;-81
2023/03/06 03:19:15;;;;;;;0.30;0.30;;;2.80;99.90;;;;;;5072654;28;20465;-81
2023/03/06 03:21:41;;;;;;;1.30;0.47;;;2.90;99.90;;;;;;5072945;28;20450;-81
2023/03/06 03:24:09;;;;;;;1.70;0.60;;;2.90;99.90;;;;;;5072951;28;20450;-81
2023/03/06 03:26:35;;;;;;;0.60;0.60;;;2.90;99.90;;;;;;5072849;28;20453;-81
2023/03/06 03:29:03;;;;;;;0.50;0.50;;;2.90;99.90;;;;;;5072901;28;20492;-80
2023/03/06 03:31:31;;;;;;;0.33;0.33;;;2.90;99.90;;;;;;5072579;28;20475;-80
2023/03/06 03:33:59;;;;;;;0.40;0.40;;;2.90;99.90;;;;;;5072498;28;20820;-81
2023/03/06 03:36:26;;;;;;;8.73;0.80;;;2.90;99.90;;;;;;5072538;28;20453;-81
2023/03/06 03:38:54;;;;;;;0.87;0.87;;;2.80;99.90;;;;;;5072743;28;20497;-81
2023/03/06 03:41:21;;;;;;;0.50;0.40;;;2.90;99.90;;;;;;5072497;28;20451;-81
2023/03/06 03:43:47;;;;;;;1.00;0.60;;;2.80;99.90;;;;;;5072430;28;20489;-80
2023/03/06 03:46:14;;;;;;;0.90;0.53;;;2.80;99.90;;;;;;5072699;28;20445;-81
2023/03/06 03:48:41;;;;;;;0.30;0.20;;;2.80;99.90;;;;;;5072340;28;20477;-81
2023/03/06 03:51:11;;;;;;;5.90;0.80;;;2.80;99.90;;;;;;5074031;28;20468;-81
2023/03/06 03:53:38;;;;;;;0.40;0.40;;;2.80;99.90;;;;;;5077271;28;20449;-81
2023/03/06 03:56:05;;;;;;;3.23;0.53;;;2.80;99.90;;;;;;5076304;28;20446;-81
2023/03/06 03:58:32;;;;;;;0.90;0.90;;;2.80;99.90;;;;;;5076090;28;20481;-81
2023/03/06 04:00:59;;;;;;;0.40;0.40;;;2.80;99.90;;;;;;5076159;28;20441;-81
2023/03/06 04:03:26;;;;;;;2.13;0.40;;;2.80;99.90;;;;;;5075819;28;20957;-80
2023/03/06 04:05:54;;;;;;;2.50;0.90;;;2.80;99.90;;;;;;5076107;28;20449;-81
2023/03/06 04:08:23;;;;;;;0.83;0.83;;;2.80;99.90;;;;;;5075987;28;20497;-81
2023/03/06 04:10:50;;;;;;;0.87;0.87;;;2.80;99.90;;;;;;5075997;28;20449;-80
2023/03/06 04:13:16;;;;;;;0.77;0.77;;;2.70;99.90;;;;;;5075994;28;20536;-80
2023/03/06 04:15:43;;;;;;;1.07;0.80;;;2.70;99.90;;;;;;5075841;28;20448;-81
2023/03/06 04:18:10;;;;;;;0.60;0.50;;;2.70;99.90;;;;;;5075404;28;20484;-81
2023/03/06 04:20:37;;;;;;;0.40;0.40;;;2.70;99.90;;;;;;5075835;28;20454;-81
2023/03/06 04:23:04;;;;;;;1.90;0.93;;;2.70;99.90;;;;;;5075744;28;20453;-81
2023/03/06 04:25:32;;;;;;;2.97;0.87;;;2.70;99.90;;;;;;5075711;28;20454;-81
2023/03/06 04:27:58;;;;;;;0.40;0.30;;;2.70;99.90;;;;;;5075251;28;21004;-81
2023/03/06 04:30:25;;;;;;;0.40;0.40;;;2.60;99.90;;;;;;5075302;28;20956;-81
2023/03/06 04:32:52;;;;;;;1.40;0.90;;;2.60;99.90;;;;;;5075535;28;20454;-81
2023/03/06 04:35:19;;;;;;;0.50;0.43;;;2.60;99.90;;;;;;5075262;28;20445;-81
2023/03/06 04:37:45;;;;;;;0.40;0.40;;;2.50;99.90;;;;;;5075285;28;20862;-81
2023/03/06 04:40:18;;;;;;;0.60;0.60;;;2.50;99.90;;;;;;5075155;28;20984;-81
2023/03/06 04:42:46;;;;;;;0.93;0.93;;;2.50;99.90;;;;;;5075199;28;20485;-80
2023/03/06 04:45:13;;;;;;;2.70;0.90;;;2.50;99.90;;;;;;5075683;28;20430;-80
2023/03/06 04:47:39;;;;;;;0.40;0.30;;;2.40;99.90;;;;;;5075191;28;20472;-80
2023/03/06 04:50:08;;;;;;;0.30;0.30;;;2.40;99.90;;;;;;5075284;28;20452;-81
2023/03/06 04:52:35;;;;;;;0.40;0.40;;;2.40;99.90;;;;;;5074920;28;20456;-80
2023/03/06 04:55:06;;;;;;;6.40;0.67;;;2.30;99.90;;;;;;5075167;28;20445;-80
2023/03/06 04:57:32;;;;;;;1.13;1.03;;;2.30;99.90;;;;;;5074991;28;20508;-81
2023/03/06 05:00:00;;;;;;;0.97;0.40;;;2.20;99.90;;;;;;5075013;28;20463;-81
2023/03/06 05:02:27;;;;;;;0.30;0.30;;;2.20;99.90;;;;;;5074999;28;20441;-80
2023/03/06 05:04:54;;;;;;;0.40;0.30;;;2.20;99.90;;;;;;5074702;28;20442;-80
2023/03/06 05:07:20;;;;;;;0.30;0.30;;;2.20;99.90;;;;;;5074478;28;20992;-80
2023/03/06 05:09:47;;;;;;;0.83;0.60;;;2.20;99.90;;;;;;5074897;28;20446;-81
2023/03/06 05:12:14;;;;;;;0.30;0.30;;;2.20;99.90;;;;;;5074723;28;20441;-81
2023/03/06 05:14:40;;;;;;;0.60;0.40;;;2.20;99.90;;;;;;5074738;28;20454;-80
2023/03/06 05:17:08;;;;;;;0.40;0.40;;;2.20;99.90;;;;;;5074570;28;20448;-81
2023/03/06 05:19:35;;;;;;;13.70;1.13;;;2.20;99.90;;;;;;5074695;28;20810;-80
2023/03/06 05:22:02;;;;;;;0.30;0.30;;;2.20;99.90;;;;;;5074241;28;20446;-81
2023/03/06 05:24:28;;;;;;;4.67;0.67;;;2.20;99.90;;;;;;5074524;28;20468;-81
2023/03/06 05:26:55;;;;;;;2.73;1.50;;;2.20;99.90;;;;;;5074173;28;20467;-80
2023/03/06 05:29:22;;;;;;;1.37;1.13;;;2.20;99.90;;;;;;5074454;28;20459;-78
2023/03/06 05:31:48;;;;;;;4.20;0.73;;;2.30;99.90;;;;;;5074385;28;20445;-77
2023/03/06 05:34:17;;;;;;;10.40;0.70;;;2.30;99.90;;;;;;5074327;28;20446;-77
2023/03/06 05:36:44;;;;;;;0.50;0.40;;;2.40;99.90;;;;;;5073990;28;20445;-77
2023/03/06 05:39:10;;;;;;;1.23;0.30;;;2.40;99.90;;;;;;5073787;28;20863;-77
2023/03/06 05:41:37;;;;;;;1.43;0.93;;;2.40;99.90;;;;;;5074245;28;20445;-77
2023/03/06 05:44:04;;;;;;;1.23;1.23;;;2.40;99.90;;;;;;5072888;28;20992;-77
2023/03/06 05:46:31;;;;;;;1.30;0.63;;;2.40;99.90;;;;;;5073763;28;20445;-77
2023/03/06 05:48:57;;;;;;;0.30;0.30;;;2.40;99.90;;;;;;5073717;28;20981;-77
2023/03/06 05:51:26;;;;;;;0.30;0.20;;;2.40;99.90;;;;;;5074057;28;20449;-77
2023/03/06 05:53:53;;;;;;;0.60;0.50;;;2.40;99.90;;;;;;5074001;28;20522;-77
2023/03/06 05:56:20;;;;;;;3.30;1.13;;;2.40;99.90;;;;;;5073970;28;20452;-77
2023/03/06 05:58:47;;;;;;;1.13;0.40;;;2.50;99.90;;;;;;5073800;28;20487;-77
2023/03/06 06:01:16;;;;;;;0.30;0.30;;;2.50;99.90;;;;;;5073862;28;20448;-77
2023/03/06 06:03:43;;;;;;;0.70;0.70;;;2.50;99.90;;;;;;5073529;28;20967;-77
2023/03/06 06:06:11;;;;;;;0.60;0.50;;;2.50;99.90;;;;;;5073814;28;20445;-80
2023/03/06 06:08:40;;;;;;;0.70;0.70;;;2.50;99.90;;;;;;5073710;28;20464;-80
2023/03/06 06:11:08;;;;;;;0.97;0.50;;;2.50;99.90;;;;;;5073750;28;20452;-80
2023/03/06 06:13:35;;;;;;;0.70;0.40;;;2.50;99.90;;;;;;5073242;28;20442;-80
2023/03/06 06:16:07;;;;;;;1.00;1.00;;;2.50;99.90;;;;;;5073646;28;20453;-80
2023/03/06 06:18:33;;;;;;;0.40;0.30;;;2.50;99.90;;;;;;5073431;28;20481;-80
2023/03/06 06:21:04;;;;;;;0.67;0.67;;;2.60;99.90;;;;;;5073605;28;20446;-80
2023/03/06 06:23:31;;;;;;;1.73;0.83;;;2.60;99.90;;;;;;5073600;28;20434;-80
2023/03/06 06:26:00;;;;;;;1.70;0.57;;;2.60;99.90;;;;;;5073234;28;20952;-77
2023/03/06 06:28:27;;;;;;;4.10;0.93;;;2.60;99.90;;;;;;5073445;28;20531;-77
2023/03/06 06:30:54;;;;;;;0.40;0.40;;;2.60;99.90;;;;;;5073470;28;20446;-77
2023/03/06 06:33:21;;;;;;;0.90;0.90;;;2.60;99.90;;;;;;5073444;28;20446;-77
2023/03/06 06:35:47;;;;;;;0.67;0.67;;;2.70;99.90;;;;;;5073347;28;20441;-76
2023/03/06 06:38:14;;;;;;;0.60;0.60;;;2.70;99.90;;;;;;5073256;28;20485;-77
2023/03/06 06:40:41;;;;;;;0.40;0.40;;;2.70;99.90;;;;;;5073406;28;20532;-77
2023/03/06 06:43:09;;;;;;;0.43;0.40;;;2.70;99.90;;;;;;5073099;28;20481;-77
2023/03/06 06:45:36;;;;;;;0.30;0.30;;;2.70;99.90;;;;;;5073009;28;20449;-77
2023/03/06 06:48:03;;;;;;;0.67;0.67;;;2.80;99.90;;;;;;5072969;28;20462;-77
2023/03/06 06:50:29;;;;;;;0.50;0.50;;;2.80;99.90;;;;;;5073262;28;20445;-77
2023/03/06 06:52:56;;;;;;;0.60;0.40;;;2.80;99.90;;;;;;5073297;28;20430;-77
2023/03/06 06:55:23;;;;;;;0.40;0.40;;;2.80;99.90;;;;;;5072945;28;20446;-77
2023/03/06 06:57:49;;;;;;;1.33;1.23;;;2.80;99.90;;;;;;5073044;28;20474;-77
2023/03/06 07:00:19;;;;;;;1.13;1.03;;;2.90;99.90;;;;;;5073180;28;20450;-77
2023/03/06 07:02:47;;;;;;;0.40;0.40;;;2.90;99.90;;;;;;5073128;28;20441;-77
2023/03/06 07:05:15;;;;;;;0.40;0.30;;;2.90;99.90;;;;;;5072852;28;20907;-77
2023/03/06 07:07:43;;;;;;;2.20;0.60;;;2.90;99.90;;;;;;5073013;28;20480;-77
2023/03/06 07:10:13;;;;;;;9.17;0.97;;;3.00;99.90;;;;;;5073039;28;20450;-77
2023/03/06 07:12:40;;;;;;;0.40;0.40;;;3.00;99.90;;;;;;5073031;28;20449;-77
2023/03/06 07:15:08;;;;;;;3.10;0.90;;;3.10;99.90;;;;;;5072980;28;20449;-77
2023/03/06 07:17:36;;;;;;;0.40;0.40;;;3.10;99.90;;;;;;5072919;28;20472;-77
2023/03/06 07:20:05;;;;;;;0.40;0.30;;;3.20;99.90;;;;;;5072677;28;20933;-77
2023/03/06 07:22:32;;;;;;;1.23;0.70;;;3.20;99.90;;;;;;5072896;28;20452;-77
2023/03/06 07:24:59;;;;;;;1.03;0.60;;;3.10;99.90;;;;;;5072945;28;20453;-77
2023/03/06 07:27:26;;;;;;;0.30;0.30;;;3.20;99.90;;;;;;5075947;28;20465;-77
2023/03/06 07:29:53;;;;;;;0.40;0.40;;;3.20;99.90;;;;;;5076431;28;21002;-77
2023/03/06 07:32:19;;;;;;;0.80;0.80;;;3.20;99.90;;;;;;5076682;28;20469;-77
2023/03/06 07:34:47;;;;;;;0.40;0.40;;;3.20;99.90;;;;;;5076669;28;20449;-77
2023/03/06 07:37:14;;;;;;;1.03;0.47;;;3.20;99.90;;;;;;5076227;28;20798;-76
2023/03/06 07:39:41;;;;;;;0.97;0.97;;;3.30;99.90;;;;;;5076694;28;20477;-76
2023/03/06 07:42:07;;;;;;;0.80;0.40;;;3.40;99.90;;;;;;5076261;28;20460;-77
2023/03/06 07:44:36;;;;;;;0.80;0.80;;;3.50;99.90;;;;;;5076069;28;20497;-77
2023/03/06 07:47:03;;;;;;;0.30;0.30;;;3.50;99.90;;;;;;5076360;28;20498;-77
2023/03/06 07:49:30;;;;;;;0.60;0.60;;;3.60;99.90;;;;;;5076331;28;20468;-76
2023/03/06 07:52:00;;;;;;;0.80;0.50;;;3.70;99.90;;;;;;5076054;28;20452;-76
2023/03/06 07:54:29;;;;;;;1.27;0.77;;;3.70;99.90;;;;;;5076258;28;20457;-77
2023/03/06 07:56:56;;;;;;;0.50;0.40;;;3.80;99.90;;;;;;5076282;28;20453;-77
2023/03/06 07:59:23;;;;;;;1.90;1.00;;;3.80;99.90;;;;;;5076133;28;20489;-77
2023/03/06 08:01:49;;;;;;;2.83;1.20;;;3.90;99.90;;;;;;5075845;28;20441;-77
2023/03/06 08:04:16;;;;;;;1.03;0.70;;;4.00;99.90;;;;;;5076135;28;20456;-77
2023/03/06 08:06:43;;;;;;;0.50;0.50;;;4.20;99.90;;;;;;5075994;28;20453;-77
2023/03/06 08:09:11;;;;;;;0.40;0.40;;;4.30;99.90;;;;;;5075899;28;20469;-77
2023/03/06 08:11:38;;;;;;;0.40;0.40;;;4.40;99.90;;;;;;5076021;28;20480;-76
2023/03/06 08:14:04;;;;;;;1.07;0.70;;;4.70;99.90;;;;;;5075956;28;20479;-77
2023/03/06 08:16:31;;;;;;;0.70;0.53;;;4.80;99.90;;;;;;5075896;28;20442;-76
2023/03/06 08:18:58;;;;;;;1.43;0.73;;;5.00;99.90;;;;;;5075732;28;20477;-77
2023/03/06 08:21:26;;;;;;;0.90;0.73;;;5.20;99.90;;;;;;5075811;28;20464;-77
2023/03/06 08:23:53;;;;;;;0.57;0.40;;;5.30;99.90;;;;;;5075780;28;20448;-77
2023/03/06 08:26:23;;;;;;;1.10;1.10;;;5.30;99.90;;;;;;5075713;28;20457;-77
2023/03/06 08:28:51;;;;;;;0.70;0.40;;;5.50;99.90;;;;;;5075648;28;20465;-77
2023/03/06 08:31:26;;;;;;;1.00;0.47;;;5.60;99.90;;;;;;5075665;28;20450;-77
2023/03/06 08:33:53;;;;;;;0.43;0.40;;;5.80;99.90;;;;;;5075282;28;20432;-77
2023/03/06 08:36:20;;;;;;;3.33;0.50;;;5.90;99.90;;;;;;5074926;28;20991;-77
2023/03/06 08:38:46;;;;;;;0.73;0.50;;;6.10;99.90;;;;;;5075076;28;21019;-77
2023/03/06 08:41:13;;;;;;;1.97;1.67;;;6.20;99.90;;;;;;5075457;28;20495;-77
2023/03/06 08:43:41;;;;;;;0.50;0.43;;;6.20;99.90;;;;;;5074901;28;20478;-77
2023/03/06 08:46:09;;;;;;;0.60;0.57;;;6.40;99.90;;;;;;5075393;28;20453;-77
2023/03/06 08:48:36;;;;;;;1.77;0.50;;;6.50;99.90;;;;;;5074944;28;20973;-77
2023/03/06 08:51:03;;;;;;;2.97;0.87;;;6.50;99.90;;;;;;5075214;28;20457;-77
2023/03/06 08:53:29;;;;;;;1.07;0.30;;;6.50;99.90;;;;;;5075299;28;20453;-77
2023/03/06 08:55:56;;;;;;;0.70;0.70;;;6.40;99.90;;;;;;5075214;28;20434;-77
2023/03/06 08:58:23;;;;;;;0.90;0.90;;;6.40;99.90;;;;;;5074984;28;20469;-77
2023/03/06 09:00:51;;;;;;;0.73;0.40;;;6.30;99.90;;;;;;5075081;28;20445;-77
2023/03/06 09:03:18;;;;;;;1.40;0.40;;;6.30;99.90;;;;;;5074741;28;20959;-77
2023/03/06 09:05:45;;;;;;;0.50;0.40;;;6.40;99.90;;;;;;5074914;28;20495;-77
2023/03/06 09:08:11;;;;;;;2.77;0.40;;;6.40;99.90;;;;;;5074513;28;20465;-77
2023/03/06 09:10:38;;;;;;;1.00;0.57;;;6.50;99.90;;;;;;5074891;28;20453;-77
2023/03/06 09:13:05;;;;;;;1.87;0.70;;;6.60;99.90;;;;;;5074831;28;20448;-77
2023/03/06 09:15:32;;;;;;;1.80;0.60;;;6.80;99.90;;;;;;5074432;28;20941;-77
2023/03/06 09:18:00;;;;;;;0.70;0.70;;;6.90;99.90;;;;;;5074641;28;20477;-77
2023/03/06 09:20:26;;;;;;;1.47;0.87;;;7.10;99.90;;;;;;5074551;28;20488;-77
2023/03/06 09:22:53;;;;;;;1.60;0.53;;;7.10;99.90;;;;;;5074269;28;20453;-77
2023/03/06 09:25:22;;;;;;;0.93;0.93;;;7.00;99.90;;;;;;5074537;28;20450;-76
2023/03/06 09:27:49;;;;;;;1.73;0.80;;;7.00;99.90;;;;;;5074151;28;20980;-77
2023/03/06 09:30:17;;;;;;;0.73;0.73;;;7.00;99.90;;;;;;5074468;28;20446;-77
2023/03/06 09:32:44;;;;;;;0.60;0.60;;;6.90;99.90;;;;;;5074555;28;20454;-77
2023/03/06 09:35:14;;;;;;;4.10;1.93;;;6.70;99.90;;;;;;5074337;28;20449;-77
2023/03/06 09:37:40;;;;;;;0.60;0.50;;;6.50;99.90;;;;;;5074233;28;20996;-77
2023/03/06 09:40:13;;;;;;;2.20;0.60;;;6.40;99.90;;;;;;5074237;28;20482;-77
2023/03/06 09:42:40;;;;;;;0.60;0.60;;;6.20;99.90;;;;;;5074031;28;20434;-77
2023/03/06 09:45:10;;;;;;;0.50;0.50;;;6.10;99.90;;;;;;5074223;28;20437;-77
2023/03/06 09:47:47;;;;;;;0.40;0.40;;;6.00;99.90;;;;;;5074058;28;20461;-77
2023/03/06 09:50:32;;;;;;;0.83;0.60;;;5.90;99.90;;;;;;5073626;28;20421;-77
2023/03/06 09:53:07;;;;;;;0.40;0.40;;;6.00;99.90;;;;;;5072853;28;20460;-77
2023/03/06 09:55:38;;;;;;;0.70;0.30;;;6.10;99.90;;;;;;5074032;28;20436;-77
2023/03/06 09:58:12;;;;;;;0.30;0.27;;;6.30;99.90;;;;;;5074384;28;20470;-77
2023/03/06 10:00:42;;;;;;;1.03;0.57;;;6.40;99.90;;;;;;5073574;28;20840;-77
2023/03/06 10:03:19;;;;;;;0.40;0.40;;;6.60;99.90;;;;;;5073936;28;20438;-77
2023/03/06 10:05:52;;;;;;;0.70;0.50;;;6.60;99.90;;;;;;5073883;28;20430;-77
2023/03/06 10:08:29;;;;;;;0.77;0.73;;;6.50;99.90;;;;;;5073761;28;20469;-77
2023/03/06 10:11:00;;;;;;;1.80;0.60;;;6.40;99.90;;;;;;5073798;28;20433;-77
2023/03/06 10:13:32;;;;;;;2.83;0.70;;;6.40;99.90;;;;;;5073659;28;20529;-77
2023/03/06 10:16:07;;;;;;;1.50;0.57;;;6.30;99.90;;;;;;5073423;28;20905;-77
2023/03/06 10:18:37;;;;;;;1.87;1.27;;;6.20;99.90;;;;;;5073882;28;20554;-77
2023/03/06 10:21:20;;;;;;;2.03;0.70;;;6.10;99.90;;;;;;5073313;28;20956;-77
2023/03/06 10:23:52;;;;;;;1.77;0.50;;;6.00;99.90;;;;;;5073645;28;20559;-77
2023/03/06 10:26:22;;;;;;;0.60;0.60;;;6.10;99.90;;;;;;5073221;28;20913;-77
2023/03/06 10:28:58;;;;;;;0.50;0.50;;;6.20;99.90;;;;;;5073493;28;20507;-77
2023/03/06 10:31:26;;;;;;;0.57;0.57;;;6.10;99.90;;;;;;5073301;28;20826;-77
2023/03/06 10:33:55;;;;;;;0.53;0.53;;;6.10;99.90;;;;;;5073448;28;20434;-77
2023/03/06 10:36:26;;;;;;;2.20;0.80;;;6.10;99.90;;;;;;5073432;28;20450;-77
2023/03/06 10:38:54;;;;;;;0.50;0.40;;;6.10;99.90;;;;;;5073291;28;20875;-77
2023/03/06 10:41:26;;;;;;;0.40;0.30;;;6.10;99.90;;;;;;5073335;28;20816;-78
2023/03/06 10:44:19;;;;;;;0.37;0.37;;;6.20;99.90;;;;;;5073067;28;20473;-78
2023/03/06 10:46:48;;;;;;;0.83;0.83;;;6.30;99.90;;;;;;5073324;28;20445;-78
2023/03/06 10:49:28;;;;;;;0.90;0.40;;;6.40;99.90;;;;;;5072886;28;20465;-78
2023/03/06 10:52:02;;;;;;;0.60;0.60;;;6.30;99.90;;;;;;5072941;28;20898;-77
2023/03/06 10:54:30;;;;;;;1.13;0.40;;;6.10;99.90;;;;;;5073311;28;20421;-77
2023/03/06 10:56:56;;;;;;;1.00;0.70;;;6.20;99.90;;;;;;5072853;28;20449;-77
2023/03/06 10:59:27;;;;;;;0.37;0.30;;;6.20;99.90;;;;;;5073214;28;20485;-77
2023/03/06 11:01:55;;;;;;;1.70;0.77;;;6.20;99.90;;;;;;5077156;28;20456;-77
2023/03/06 11:04:25;;;;;;;1.27;0.83;;;6.20;99.90;;;;;;5076917;28;20960;-77
2023/03/06 11:07:12;;;;;;;2.83;1.07;;;6.20;99.90;;;;;;5076932;28;20901;-77
2023/03/06 11:09:39;;;;;;;1.20;0.93;;;6.30;99.90;;;;;;5077242;28;20825;-77
2023/03/06 11:12:21;;;;;;;5.07;1.47;;;6.30;99.90;;;;;;5077529;28;20429;-77
2023/03/06 11:15:08;;;;;;;0.60;0.40;;;6.20;99.90;;;;;;5077050;28;20465;-77
2023/03/06 11:17:37;;;;;;;9.73;0.60;;;6.30;99.90;;;;;;5076672;28;20461;-74
2023/03/06 11:20:17;;;;;;;1.90;0.80;;;6.40;99.90;;;;;;5076847;28;20481;-77
2023/03/06 11:22:48;;;;;;;1.43;0.80;;;6.50;99.90;;;;;;5077000;28;20516;-77
2023/03/06 11:25:18;;;;;;;0.50;0.50;;;6.50;99.90;;;;;;5076631;28;20533;-77
2023/03/06 11:27:46;;;;;;;0.60;0.60;;;6.60;99.90;;;;;;5076437;28;20469;-77
2023/03/06 11:30:18;;;;;;;1.17;0.80;;;6.80;99.90;;;;;;5076793;28;20441;-77
2023/03/06 11:32:49;;;;;;;2.40;0.73;;;6.80;99.90;;;;;;5076780;28;20429;-77
2023/03/06 11:35:21;;;;;;;0.80;0.80;;;7.10;99.90;;;;;;5076728;28;20439;-77
2023/03/06 11:37:53;;;;;;;1.30;1.20;;;7.30;99.90;;;;;;5076624;28;20465;-77
2023/03/06 11:40:28;;;;;;;1.63;0.70;;;7.60;99.90;;;;;;5076275;28;20972;-77
2023/03/06 11:43:04;;;;;;;0.40;0.40;;;7.80;99.90;;;;;;5076274;28;20480;-78
2023/03/06 11:45:36;;;;;;;0.43;0.43;;;7.90;99.90;;;;;;5076541;28;20434;-77
2023/03/06 11:48:20;;;;;;;4.10;1.67;;;8.00;99.90;;;;;;5076122;28;20501;-78
2023/03/06 11:50:49;;;;;;;0.40;0.40;;;8.00;99.90;;;;;;5077009;28;20426;-78
2023/03/06 11:53:19;;;;;;;0.87;0.50;;;8.00;99.90;;;;;;5076187;28;20452;-78
2023/03/06 11:55:53;;;;;;;1.80;0.70;;;8.10;99.90;;;;;;5076855;28;20433;-77
2023/03/06 11:58:42;;;;;;;0.87;0.40;;;8.30;99.90;;;;;;5075929;28;21000;-77
2023/03/06 12:01:17;;;;;;;2.10;1.20;;;8.20;99.90;;;;;;5075847;28;21021;-77
2023/03/06 12:04:01;;;;;;;2.43;0.50;;;8.20;99.90;;;;;;5076721;28;20437;-77
2023/03/06 12:06:39;;;;;;;0.40;0.30;;;8.40;99.90;;;;;;5076128;28;20441;-78
2023/03/06 12:09:24;;;;;;;0.40;0.40;;;8.50;99.90;;;;;;5075808;28;20449;-78
2023/03/06 12:12:06;;;;;;;1.97;0.90;;;8.70;99.90;;;;;;5075336;28;20457;-77
2023/03/06 12:14:45;;;;;;;0.90;0.60;;;8.70;99.90;;;;;;5076056;28;20426;-77
2023/03/06 12:17:21;;;;;;;0.43;0.40;;;8.70;99.90;;;;;;5075594;28;20935;-77
2023/03/06 12:19:59;;;;;;;0.90;0.47;;;8.80;99.90;;;;;;5075560;28;20972;-78
2023/03/06 12:22:47;;;;;;;0.70;0.50;;;8.90;99.90;;;;;;5075836;28;20425;-77
2023/03/06 12:25:25;;;;;;;0.83;0.73;;;9.00;99.90;;;;;;5075823;28;20439;-78
2023/03/06 12:28:12;;;;;;;2.50;0.97;;;9.00;99.90;;;;;;5075384;28;20472;-78
2023/03/06 12:31:14;;;;;;;0.40;0.30;;;9.00;99.90;;;;;;5075740;28;20422;-78
2023/03/06 12:33:50;;;;;;;1.13;0.80;;;8.90;99.90;;;;;;5075628;28;20456;-77
2023/03/06 12:36:29;;;;;;;2.27;1.23;;;8.80;99.90;;;;;;5075288;28;20429;-78
2023/03/06 12:39:06;;;;;;;1.90;1.03;;;8.60;99.90;;;;;;5075512;28;20473;-78
2023/03/06 12:41:43;;;;;;;0.67;0.67;;;8.40;99.90;;;;;;5075477;28;20473;-77
2023/03/06 12:44:48;;;;;;;0.67;0.67;;;8.30;99.90;;;;;;5075108;28;20477;-78
2023/03/06 12:47:20;;;;;;;2.30;0.60;;;8.20;99.90;;;;;;5075306;28;20430;-77
2023/03/06 12:49:53;;;;;;;0.97;0.80;;;8.40;99.90;;;;;;5075922;28;20434;-78
2023/03/06 12:52:23;;;;;;;3.17;1.30;;;8.60;99.90;;;;;;5075300;28;20429;-77
2023/03/06 12:54:51;;;;;;;0.60;0.60;;;8.60;99.90;;;;;;5075291;28;20422;-78
2023/03/06 12:57:19;;;;;;;0.30;0.30;;;8.70;99.90;;;;;;5075083;28;20473;-78
2023/03/06 12:59:47;;;;;;;0.80;0.40;;;8.60;99.90;;;;;;5075343;28;20477;-78
2023/03/06 13:02:56;;;;;;;0.90;0.50;;;8.50;99.90;;;;;;5074961;28;20452;-78
2023/03/06 13:06:02;;;;;;;0.50;0.50;;;8.40;99.90;;;;;;5074746;28;20438;-78
2023/03/06 13:09:05;;;;;;;2.33;0.60;;;8.20;99.90;;;;;;5074854;28;20476;-77
2023/03/06 13:11:56;;;;;;;0.80;0.50;;;8.10;99.90;;;;;;5074908;28;20429;-78